createdAt,value
2022-08-05T00:00:17.836Z,8.07
2022-08-05T00:02:50.582Z,9.98
2022-08-05T00:06:02.890Z,15.43
2022-08-05T00:08:19.837Z,14.32
2022-08-05T00:10:53.180Z,10.73
2022-08-05T00:13:20.149Z,11.55
2022-08-05T00:16:08.579Z,11.32
2022-08-05T00:18:37.964Z,11.60
2022-08-05T00:21:06.513Z,11.13
2022-08-05T00:23:45.643Z,8.30
2022-08-05T00:26:22.142Z,8.23
2022-08-05T00:28:49.517Z,12.55
2022-08-05T00:31:54.290Z,8.70
2022-08-05T00:34:54.547Z,14.70
2022-08-05T00:37:11.701Z,11.15
2022-08-05T00:39:44.455Z,12.80
2022-08-05T00:42:36.775Z,12.93
2022-08-05T00:45:08.576Z,8.65
2022-08-05T00:47:56.409Z,9.60
2022-08-05T00:50:25.775Z,12.90
2022-08-05T00:52:55.166Z,14.73
2022-08-05T00:55:23.046Z,8.32
2022-08-05T00:58:01.412Z,9.65
2022-08-05T01:00:32.046Z,13.27
2022-08-05T01:03:00.828Z,12.60
2022-08-05T01:05:27.993Z,8.70
2022-08-05T01:08:40.930Z,8.90
2022-08-05T01:10:59.680Z,10.18
2022-08-05T01:16:39.135Z,9.13
2022-08-05T01:20:00.949Z,9.85
2022-08-05T01:22:41.601Z,9.00
2022-08-05T01:25:23.314Z,10.38
2022-08-05T01:28:22.350Z,6.53
2022-08-05T01:31:02.891Z,9.57
2022-08-05T01:33:36.133Z,11.68
2022-08-05T01:36:13.126Z,10.05
2022-08-05T01:38:48.299Z,13.68
2022-08-05T01:41:21.964Z,9.63
2022-08-05T01:43:51.234Z,10.70
2022-08-05T01:46:42.669Z,12.52
2022-08-05T01:49:24.313Z,9.82
2022-08-05T01:51:58.807Z,9.35
2022-08-05T01:54:34.428Z,8.98
2022-08-05T01:58:10.553Z,12.05
2022-08-05T02:00:06.067Z,14.27
2022-08-05T02:02:51.106Z,11.45
2022-08-05T02:05:25.727Z,12.43
2022-08-05T02:08:00.185Z,8.88
2022-08-05T02:10:35.256Z,11.27
2022-08-05T02:13:15.936Z,12.52
2022-08-05T02:16:04.251Z,12.82
2022-08-05T02:18:53.299Z,10.75
2022-08-05T02:21:26.536Z,10.63
2022-08-05T02:23:59.375Z,11.30
2022-08-05T02:26:34.039Z,12.05
2022-08-05T02:29:02.045Z,7.32
2022-08-05T02:31:34.897Z,9.32
2022-08-05T02:34:09.339Z,12.13
2022-08-05T02:36:42.703Z,13.73
2022-08-05T02:39:11.029Z,16.63
2022-08-05T02:41:57.626Z,8.65
2022-08-05T02:44:29.054Z,8.65
2022-08-05T02:47:00.193Z,11.23
2022-08-05T02:49:36.503Z,11.68
2022-08-05T02:52:29.487Z,12.15
2022-08-05T02:54:58.860Z,11.40
2022-08-05T02:58:12.294Z,11.55
2022-08-05T03:00:17.661Z,9.55
2022-08-05T03:02:47.745Z,11.52
2022-08-05T03:05:16.070Z,9.32
2022-08-05T03:08:06.594Z,14.02
2022-08-05T03:10:31.369Z,10.63
2022-08-05T03:15:24.656Z,9.80
2022-08-05T03:17:57.486Z,10.77
2022-08-05T03:20:25.378Z,10.10
2022-08-05T03:22:57.311Z,10.35
2022-08-05T03:25:32.442Z,10.15
2022-08-05T03:28:02.372Z,14.32
2022-08-05T03:30:34.602Z,10.77
2022-08-05T03:33:07.229Z,10.15
2022-08-05T03:35:40.471Z,9.35
2022-08-05T03:38:11.304Z,9.57
2022-08-05T03:40:47.287Z,10.23
2022-08-05T03:44:09.202Z,10.35
2022-08-05T03:46:04.913Z,16.67
2022-08-05T03:48:35.437Z,12.23
2022-08-05T03:52:39.332Z,16.77
2022-08-05T03:55:51.303Z,10.35
2022-08-05T03:57:44.458Z,13.75
2022-08-05T04:00:16.314Z,14.13
2022-08-05T04:02:57.697Z,11.13
2022-08-05T04:05:33.600Z,12.73
2022-08-05T04:08:29.706Z,10.60
2022-08-05T04:10:56.435Z,13.00
2022-08-05T04:13:25.550Z,11.23
2022-08-05T04:16:03.150Z,14.32
2022-08-05T04:18:34.417Z,11.10
2022-08-05T04:21:02.479Z,10.57
2022-08-05T04:24:05.322Z,10.15
2022-08-05T04:26:18.782Z,12.50
2022-08-05T04:28:51.122Z,9.40
2022-08-05T04:31:20.078Z,10.65
2022-08-05T04:34:18.905Z,13.00
2022-08-05T04:36:45.455Z,14.52
2022-08-05T04:39:13.703Z,11.45
2022-08-05T04:41:40.822Z,13.93
2022-08-05T04:44:09.462Z,9.68
2022-08-05T04:46:38.169Z,14.88
2022-08-05T04:49:12.333Z,12.07
2022-08-05T04:51:43.301Z,12.32
2022-08-05T04:54:10.575Z,12.55
2022-08-05T04:56:39.484Z,13.23
2022-08-05T04:59:17.439Z,11.35
2022-08-05T05:02:35.675Z,16.60
2022-08-05T05:04:38.178Z,12.55
2022-08-05T05:07:09.371Z,12.00
2022-08-05T05:09:37.396Z,10.20
2022-08-05T05:12:06.209Z,9.98
2022-08-05T05:14:33.360Z,11.77
2022-08-05T05:17:03.801Z,13.32
2022-08-05T05:19:36.611Z,13.82
2022-08-05T05:22:24.411Z,13.82
2022-08-05T05:25:00.164Z,14.93
2022-08-05T05:27:44.946Z,10.90
2022-08-05T05:30:29.783Z,16.20
2022-08-05T05:33:09.210Z,12.73
2022-08-05T05:35:45.887Z,12.80
2022-08-05T05:38:14.348Z,13.43
2022-08-05T05:40:50.039Z,12.25
2022-08-05T05:43:54.442Z,10.63
2022-08-05T05:46:16.326Z,13.27
2022-08-05T05:48:48.121Z,9.90
2022-08-05T05:51:23.317Z,11.98
2022-08-05T05:53:57.522Z,12.65
2022-08-05T05:56:32.271Z,13.25
2022-08-05T05:59:06.803Z,10.90
2022-08-05T06:04:12.695Z,15.35
2022-08-05T06:06:42.827Z,11.13
2022-08-05T06:09:17.300Z,10.55
2022-08-05T06:12:01.130Z,11.07
2022-08-05T06:14:30.798Z,14.02
2022-08-05T06:16:58.442Z,12.38
2022-08-05T06:19:34.233Z,13.90
2022-08-05T06:22:06.470Z,10.82
2022-08-05T06:24:35.286Z,11.07
2022-08-05T06:27:03.897Z,14.30
2022-08-05T06:29:52.008Z,12.05
2022-08-05T06:32:26.385Z,13.55
2022-08-05T06:34:58.350Z,9.52
2022-08-05T06:37:52.250Z,12.60
2022-08-05T06:40:18.442Z,10.55
2022-08-05T06:42:52.083Z,10.82
2022-08-05T06:45:44.441Z,14.35
2022-08-05T06:48:44.358Z,11.50
2022-08-05T06:50:57.193Z,9.73
2022-08-05T06:53:28.425Z,15.88
2022-08-05T06:56:00.557Z,9.23
2022-08-05T06:58:29.873Z,14.57
2022-08-05T07:01:02.716Z,9.20
2022-08-05T07:03:32.894Z,10.30
2022-08-05T07:06:05.863Z,18.48
2022-08-05T07:08:43.113Z,9.93
2022-08-05T07:11:15.841Z,13.85
2022-08-05T07:14:02.528Z,11.57
2022-08-05T07:17:56.658Z,10.07
2022-08-05T07:20:16.806Z,8.73
2022-08-05T07:22:28.875Z,8.73
2022-08-05T07:25:23.720Z,12.25
2022-08-05T07:27:57.566Z,10.15
2022-08-05T07:30:31.993Z,8.18
2022-08-05T07:33:09.625Z,7.50
2022-08-05T07:36:03.736Z,9.80
2022-08-05T07:38:33.491Z,8.27
2022-08-05T07:42:06.830Z,9.05
2022-08-05T07:43:59.326Z,6.70
2022-08-05T07:46:28.180Z,7.22
2022-08-05T07:49:01.942Z,8.80
2022-08-05T07:51:36.625Z,7.13
2022-08-05T07:54:08.454Z,8.27
2022-08-05T07:57:00.002Z,7.68
2022-08-05T07:59:38.825Z,8.55
2022-08-05T08:02:16.959Z,7.00
2022-08-05T08:04:48.657Z,7.90
2022-08-05T08:07:22.078Z,6.40
2022-08-05T08:09:52.521Z,6.63
2022-08-05T08:12:36.994Z,5.47
2022-08-05T08:15:15.071Z,7.85
2022-08-05T08:17:50.577Z,11.02
2022-08-05T08:21:00.266Z,6.22
2022-08-05T08:24:00.045Z,5.22
2022-08-05T08:26:00.870Z,8.38
2022-08-05T08:28:36.259Z,7.60
2022-08-05T08:31:06.796Z,4.85
2022-08-05T08:33:38.103Z,7.03
2022-08-05T08:36:38.496Z,5.32
2022-08-05T08:38:59.050Z,7.57
2022-08-05T08:41:50.633Z,8.20
2022-08-05T08:45:22.447Z,4.57
2022-08-05T08:47:46.899Z,4.75
2022-08-05T08:50:22.218Z,9.30
2022-08-05T08:52:51.857Z,4.97
2022-08-05T08:56:01.924Z,5.28
2022-08-05T08:58:08.891Z,7.47
2022-08-05T09:00:36.329Z,6.15
2022-08-05T09:03:16.281Z,4.53
2022-08-05T09:06:07.797Z,6.93
2022-08-05T09:08:35.114Z,5.25
2022-08-05T09:11:07.722Z,7.80
2022-08-05T09:14:01.130Z,6.95
2022-08-05T09:16:23.398Z,3.92
2022-08-05T09:18:55.491Z,6.65
2022-08-05T09:22:23.624Z,8.85
2022-08-05T09:24:12.921Z,8.52
2022-08-05T09:26:46.325Z,7.88
2022-08-05T09:29:18.402Z,7.63
2022-08-05T09:32:41.210Z,4.10
2022-08-05T09:34:55.066Z,4.68
2022-08-05T09:38:16.288Z,5.95
2022-08-05T09:40:38.203Z,7.32
2022-08-05T09:43:08.389Z,7.68
2022-08-05T09:46:06.204Z,6.18
2022-08-05T09:48:26.982Z,6.75
2022-08-05T09:51:14.991Z,4.68
2022-08-05T09:53:54.544Z,5.43
2022-08-05T09:56:29.939Z,7.30
2022-08-05T09:59:04.352Z,4.72
2022-08-05T10:01:33.793Z,9.32
2022-08-05T10:04:12.404Z,7.22
2022-08-05T10:06:59.627Z,4.32
2022-08-05T10:09:29.561Z,5.00
2022-08-05T10:12:30.436Z,5.53
2022-08-05T10:15:25.705Z,5.63
2022-08-05T10:18:23.071Z,3.25
2022-08-05T10:21:15.698Z,5.10
2022-08-05T10:23:59.375Z,5.00
2022-08-05T10:26:32.565Z,7.68
2022-08-05T10:29:01.161Z,4.22
2022-08-05T10:32:53.685Z,4.78
2022-08-05T10:34:15.413Z,5.47
2022-08-05T10:36:44.447Z,6.57
2022-08-05T10:39:25.078Z,7.05
2022-08-05T10:42:11.816Z,5.93
2022-08-05T10:44:43.827Z,4.70
2022-08-05T10:47:26.014Z,6.47
2022-08-05T10:50:31.901Z,4.43
2022-08-05T10:53:01.133Z,7.32
2022-08-05T10:55:38.431Z,6.20
2022-08-05T10:58:11.364Z,4.53
2022-08-05T11:00:42.129Z,4.75
2022-08-05T11:03:24.700Z,7.13
2022-08-05T11:06:16.095Z,4.35
2022-08-05T11:09:32.344Z,5.20
2022-08-05T11:12:55.728Z,6.88
2022-08-05T11:15:59.414Z,8.13
2022-08-05T11:18:34.366Z,4.47
2022-08-05T11:21:11.179Z,6.97
2022-08-05T11:24:04.964Z,5.25
2022-08-05T11:26:40.551Z,4.45
2022-08-05T11:29:43.280Z,7.63
2022-08-05T11:32:27.932Z,7.45
2022-08-05T11:34:57.340Z,4.05
2022-08-05T11:38:29.634Z,5.72
2022-08-05T11:41:35.556Z,5.25
2022-08-05T11:44:06.291Z,6.93
2022-08-05T11:46:58.432Z,8.48
2022-08-05T11:49:33.763Z,4.78
2022-08-05T11:52:02.034Z,8.32
2022-08-05T11:54:40.666Z,3.75
2022-08-05T11:57:25.241Z,10.20
2022-08-05T11:59:54.523Z,5.82
2022-08-05T12:02:33.465Z,3.97
2022-08-05T12:05:06.954Z,9.88
2022-08-05T12:08:10.542Z,4.93
2022-08-05T12:10:43.710Z,7.53
2022-08-05T12:13:18.680Z,6.03
2022-08-05T12:16:14.378Z,9.70
2022-08-05T12:18:48.659Z,6.65
2022-08-05T12:21:30.258Z,7.15
2022-08-05T12:24:09.864Z,6.20
2022-08-05T12:26:40.928Z,7.13
2022-08-05T12:29:25.364Z,7.78
2022-08-05T12:31:57.904Z,8.50
2022-08-05T12:34:35.698Z,6.70
2022-08-05T12:37:21.613Z,7.13
2022-08-05T12:39:51.899Z,4.85
2022-08-05T12:42:21.697Z,6.35
2022-08-05T12:44:52.497Z,4.38
2022-08-05T12:47:30.571Z,6.35
2022-08-05T12:50:03.508Z,6.63
2022-08-05T12:52:39.125Z,7.13
2022-08-05T12:55:25.380Z,7.28
2022-08-05T13:02:00.488Z,4.95
2022-08-05T13:03:41.616Z,4.97
2022-08-05T13:06:17.286Z,6.55
2022-08-05T13:08:51.942Z,4.80
2022-08-05T13:11:59.740Z,3.72
2022-08-05T13:14:25.038Z,9.50
2022-08-05T13:17:20.647Z,5.85
2022-08-05T13:20:01.198Z,5.38
2022-08-05T13:22:30.017Z,6.22
2022-08-05T13:25:00.804Z,6.45
2022-08-05T13:27:37.938Z,8.35
2022-08-05T13:30:33.920Z,7.07
2022-08-05T13:32:56.381Z,5.47
2022-08-05T13:35:31.318Z,7.82
2022-08-05T13:38:15.724Z,5.97
2022-08-05T13:40:55.693Z,3.83
2022-08-05T13:43:22.656Z,6.88
2022-08-05T13:45:50.868Z,6.63
2022-08-05T13:48:57.601Z,5.15
2022-08-05T13:51:09.613Z,8.63
2022-08-05T13:53:48.259Z,6.03
2022-08-05T13:56:18.190Z,3.85
2022-08-05T13:58:53.053Z,5.65
2022-08-05T14:01:27.442Z,5.97
2022-08-05T14:04:22.147Z,8.27
2022-08-05T14:06:58.644Z,6.85
2022-08-05T14:09:46.236Z,3.25
2022-08-05T14:12:17.624Z,3.70
2022-08-05T14:14:46.342Z,7.18
2022-08-05T14:17:16.882Z,7.03
2022-08-05T14:19:55.156Z,6.20
2022-08-05T14:34:12.062Z,7.28
2022-08-05T14:36:42.308Z,8.88
2022-08-05T14:39:15.729Z,7.55
2022-08-05T14:42:16.775Z,9.88
2022-08-05T14:44:37.546Z,4.68
2022-08-05T14:47:05.354Z,6.15
2022-08-05T14:49:59.693Z,6.60
2022-08-05T14:52:50.444Z,7.05
2022-08-05T14:55:13.895Z,4.65
2022-08-05T14:57:54.804Z,8.00
2022-08-05T15:00:27.918Z,5.90
2022-08-05T15:02:56.912Z,6.75
2022-08-05T15:05:29.967Z,4.30
2022-08-05T15:08:17.976Z,8.68
2022-08-05T15:11:01.487Z,7.97
2022-08-05T15:13:44.909Z,6.40
2022-08-05T15:16:13.780Z,11.45
2022-08-05T15:18:40.774Z,4.88
2022-08-05T15:21:08.764Z,3.83
2022-08-05T15:23:35.811Z,4.22
2022-08-05T15:26:05.148Z,3.08
2022-08-05T15:28:34.230Z,5.43
2022-08-05T15:31:03.570Z,4.85
2022-08-05T15:33:56.734Z,5.07
2022-08-05T15:36:24.435Z,3.78
2022-08-05T15:40:41.042Z,7.15
2022-08-05T15:41:57.398Z,2.70
2022-08-05T15:44:27.631Z,6.30
2022-08-05T15:46:55.757Z,6.15
2022-08-05T15:49:40.984Z,6.38
2022-08-05T15:52:16.222Z,3.90
2022-08-05T15:54:43.543Z,5.63
2022-08-05T15:57:11.260Z,6.10
2022-08-05T15:59:39.622Z,4.43
2022-08-05T16:02:09.663Z,3.03
2022-08-05T16:04:42.368Z,3.92
2022-08-05T16:07:10.755Z,4.32
2022-08-05T16:09:37.946Z,4.22
2022-08-05T16:12:09.321Z,4.30
2022-08-05T16:14:38.562Z,6.57
2022-08-05T16:17:05.614Z,5.20
2022-08-05T16:20:04.420Z,5.85
2022-08-05T16:22:24.355Z,5.03
2022-08-05T16:24:55.021Z,4.00
2022-08-05T16:27:46.923Z,7.82
2022-08-05T16:30:23.412Z,5.68
2022-08-05T16:32:54.107Z,10.67
2022-08-05T16:35:27.778Z,3.83
2022-08-05T16:38:15.524Z,4.88
2022-08-05T16:40:47.740Z,4.03
2022-08-05T16:43:19.344Z,6.03
2022-08-05T16:46:04.850Z,2.55
2022-08-05T16:48:35.510Z,1.88
2022-08-05T16:51:09.362Z,5.40
2022-08-05T16:54:04.955Z,3.97
2022-08-05T16:56:26.646Z,3.65
2022-08-05T16:58:54.338Z,4.95
2022-08-05T17:01:21.663Z,4.38
2022-08-05T17:03:52.077Z,7.70
2022-08-05T17:06:19.971Z,8.50
2022-08-05T17:08:52.146Z,3.20
2022-08-05T17:11:23.855Z,4.32
2022-08-05T17:14:00.516Z,3.67
2022-08-05T17:16:36.244Z,4.38
2022-08-05T17:19:09.595Z,4.03
2022-08-05T17:21:39.561Z,6.47
2022-08-05T17:24:18.649Z,4.10
2022-08-05T17:26:58.166Z,4.15
2022-08-05T17:29:33.502Z,3.38
2022-08-05T17:32:07.117Z,8.10
2022-08-05T17:34:35.488Z,5.03
2022-08-05T17:37:04.597Z,3.10
2022-08-05T17:39:51.172Z,6.10
2022-08-05T17:42:25.739Z,6.35
2022-08-05T17:44:56.010Z,5.82
2022-08-05T17:47:23.744Z,5.70
2022-08-05T17:50:03.635Z,5.03
2022-08-05T17:52:35.191Z,3.70
2022-08-05T17:55:21.720Z,8.00
2022-08-05T17:57:50.290Z,4.18
2022-08-05T18:00:18.545Z,7.32
2022-08-05T18:02:47.294Z,6.40
2022-08-05T18:05:17.042Z,10.20
2022-08-05T18:07:44.800Z,3.20
2022-08-05T18:10:14.076Z,5.20
2022-08-05T18:12:49.671Z,2.47
2022-08-05T18:15:16.771Z,4.28
2022-08-05T18:18:00.596Z,4.18
2022-08-05T18:20:32.395Z,3.25
2022-08-05T18:23:00.563Z,4.82
2022-08-05T18:25:36.279Z,4.07
2022-08-05T18:28:05.733Z,4.00
2022-08-05T18:30:39.171Z,5.53
2022-08-05T18:33:08.565Z,5.50
2022-08-05T18:36:00.553Z,3.72
2022-08-05T18:38:28.885Z,4.45
2022-08-05T18:41:55.689Z,4.35
2022-08-05T18:43:48.925Z,9.45
2022-08-05T18:46:19.741Z,3.65
2022-08-05T18:48:52.451Z,4.60
2022-08-05T18:52:05.877Z,2.72
2022-08-05T18:54:31.069Z,4.68
2022-08-05T18:57:01.047Z,5.82
2022-08-05T18:59:44.113Z,3.67
2022-08-05T19:02:27.446Z,6.18
2022-08-05T19:05:02.137Z,13.50
2022-08-05T19:07:48.281Z,4.03
2022-08-05T19:10:17.209Z,4.50
2022-08-05T19:12:46.121Z,4.50
2022-08-05T19:15:58.295Z,2.20
2022-08-05T19:18:10.132Z,3.80
2022-08-05T19:20:41.833Z,2.97
2022-08-05T19:24:03.271Z,7.28
2022-08-05T19:26:04.857Z,3.58
2022-08-05T19:28:35.510Z,3.67
2022-08-05T19:31:05.858Z,3.83
2022-08-05T19:33:36.804Z,3.90
2022-08-05T19:36:08.859Z,3.83
2022-08-05T19:38:36.672Z,3.42
2022-08-05T19:41:09.059Z,3.33
2022-08-05T19:44:06.793Z,6.53
2022-08-05T19:46:30.206Z,5.28
2022-08-05T19:49:04.130Z,6.70
2022-08-05T19:52:04.300Z,5.32
2022-08-05T19:54:28.409Z,2.75
2022-08-05T19:56:59.832Z,3.13
2022-08-05T20:00:02.098Z,3.70
2022-08-05T20:02:17.947Z,2.95
2022-08-05T20:04:45.837Z,4.32
2022-08-05T20:07:14.134Z,5.45
2022-08-05T20:09:54.818Z,3.58
2022-08-05T20:12:24.936Z,5.00
2022-08-05T20:14:53.232Z,7.72
2022-08-05T20:17:23.503Z,6.03
2022-08-05T20:19:56.705Z,7.35
2022-08-05T20:22:27.306Z,5.95
2022-08-05T20:24:55.939Z,3.00
2022-08-05T20:27:41.488Z,3.53
2022-08-05T20:30:10.398Z,3.00
2022-08-05T20:32:37.597Z,4.65
2022-08-05T20:35:12.640Z,3.65
2022-08-05T20:38:05.568Z,5.07
2022-08-05T20:40:30.286Z,2.70
2022-08-05T20:43:00.070Z,4.15
2022-08-05T20:45:55.831Z,3.72
2022-08-05T20:48:16.400Z,4.32
2022-08-05T20:50:45.419Z,5.35
2022-08-05T20:53:15.995Z,7.40
2022-08-05T20:56:08.459Z,2.78
2022-08-05T20:58:36.995Z,3.33
2022-08-05T21:01:04.793Z,2.92
2022-08-05T21:03:34.472Z,5.25
2022-08-05T21:06:02.193Z,4.72
2022-08-05T21:08:41.689Z,6.97
2022-08-05T21:11:12.533Z,4.55
2022-08-05T21:13:55.645Z,4.35
2022-08-05T21:19:00.056Z,3.93
2022-08-05T21:21:39.717Z,4.43
2022-08-05T21:24:15.958Z,8.93
2022-08-05T21:26:47.177Z,3.92
2022-08-05T21:29:26.196Z,8.77
2022-08-05T21:31:54.257Z,5.37
2022-08-05T21:34:23.139Z,6.85
2022-08-05T21:36:51.375Z,6.38
2022-08-05T21:39:26.707Z,5.10
2022-08-05T21:42:01.947Z,8.48
2022-08-05T21:44:31.063Z,6.07
2022-08-05T21:46:59.851Z,3.35
2022-08-05T21:49:58.771Z,4.28
2022-08-05T21:52:22.106Z,5.40
2022-08-05T21:54:56.046Z,4.65
2022-08-05T21:57:32.304Z,4.57
2022-08-05T22:00:06.303Z,3.28
2022-08-05T22:02:41.758Z,7.30
2022-08-05T22:05:10.954Z,4.30
2022-08-05T22:07:39.757Z,4.20
2022-08-05T22:10:26.938Z,4.00
2022-08-05T22:12:57.246Z,3.13
2022-08-05T22:16:01.098Z,8.90
2022-08-05T22:18:14.521Z,3.90
2022-08-05T22:20:42.024Z,4.85
2022-08-05T22:24:01.815Z,2.72
2022-08-05T22:26:35.708Z,12.65
2022-08-05T22:29:03.808Z,4.35
2022-08-05T22:31:31.687Z,8.38
2022-08-05T22:34:20.027Z,3.72
2022-08-05T22:36:52.514Z,5.00
2022-08-05T22:39:21.469Z,5.15
2022-08-05T22:42:10.152Z,8.68
2022-08-05T22:44:35.754Z,8.38
2022-08-05T22:47:06.021Z,5.30
2022-08-05T22:50:19.446Z,6.22
2022-08-05T22:52:30.432Z,3.45
2022-08-05T22:55:01.768Z,6.18
2022-08-05T22:57:36.221Z,7.15
2022-08-05T23:00:07.876Z,4.43
2022-08-05T23:02:40.061Z,4.32
2022-08-05T23:05:15.700Z,5.10
2022-08-05T23:07:44.960Z,7.35
2022-08-05T23:10:13.124Z,5.30
2022-08-05T23:12:40.278Z,4.63
2022-08-05T23:15:10.791Z,5.88
2022-08-05T23:18:00.157Z,4.30
2022-08-05T23:20:26.331Z,4.43
2022-08-05T23:22:56.020Z,7.93
2022-08-05T23:25:51.504Z,3.33
2022-08-05T23:28:11.454Z,4.18
2022-08-05T23:30:39.626Z,5.22
2022-08-05T23:33:16.470Z,5.30
2022-08-05T23:35:51.124Z,2.60
2022-08-05T23:38:18.370Z,5.75
2022-08-05T23:40:50.116Z,5.70
2022-08-05T23:43:25.814Z,3.95
2022-08-05T23:46:20.983Z,5.20
2022-08-05T23:49:01.201Z,4.90
2022-08-05T23:51:55.435Z,4.60
2022-08-05T23:54:34.059Z,7.28
2022-08-05T23:57:04.741Z,4.95
